Terminal Aerodrome Forecast
Issued by NWS

Home | Current Version | Previous Version | Text Only | Print | Product List | Glossary On
Versions: 1 2 3 4 5 6 7 8 9 10 11 12 13 14 15 16 17 18 19 20 21 22 23 24 25
000
FTUS43 KDVN 071727
TAFCID
TAF
KCID 071727Z 0718/0818 36011KT 6SM HZ SCT025 BKN040
     FM080000 03007KT 6SM HZ SCT040
     FM080600 08004KT 6SM BR SKC
     FM080900 08004KT 4SM BR SKC
     FM081400 09008KT 6SM HZ BKN150=

USA.gov is the U.S. government's official web portal to all federal, state and local government web resources and services.